Gulf Reliance — WDD2703 — position and weather

sailwx.info

Track history (hours):
 
Tides and Currents Weather Stations Pressure Air Temp Water Temp Dewpoint Dewpoint Depression Visibility Wind Speed Wind Dir Waves Ship Positions

Gulf Reliance

Owner: Intrepid Ship Management, Jacksonville, FL. More information available from US FCC via Universal Licensing System and Coast Guard Vessel Documentation Center.

Last reported at 2018-Jan-19 01:00 UTC. Time now 2018-Jan-19 01:26 UTC.
Position N 34°17' W 121°45'.

Type: Towing. MMSI: 303668000.

Date/timePositionNaut miles runAvg speedWind from/ knotsBaromVisibWave heightAir tempDewpointWater temp
2018-Jan-19 01:00N 34°17' W 121°45'611.4
2018-Jan-19 00:31N 34°21' W 121°49'611.5
2018-Jan-19 00:00N 34°25' W 121°54'611.2
2018-Jan-18 23:30N 34°30' W 121°58'611.0
2018-Jan-18 23:00N 34°34' W 122°02'510.9
2018-Jan-18 22:30N 34°38' W 122°06'611.1
2018-Jan-18 22:00N 34°42' W 122°11'611.4
2018-Jan-18 21:28N 34°47' W 122°15'2611.2
2018-Jan-18 19:08N 35°07' W 122°36'511.2
2018-Jan-18 18:43N 35°10' W 122°40'411.1
2018-Jan-18 18:22N 35°13' W 122°43'1711.2
2018-Jan-18 16:50N 35°26' W 122°56'1911.3
2018-Jan-18 15:08N 35°45' W 123°04'311.6
2018-Jan-18 14:53N 35°47' W 123°05'611.6
2018-Jan-18 14:23N 35°53' W 123°07'411.6
2018-Jan-18 14:00N 35°57' W 123°09'611.8
2018-Jan-18 13:30N 36°03' W 123°11'3211.4
2018-Jan-18 10:41N 36°34' W 123°19'211.2
2018-Jan-18 10:29N 36°36' W 123°20'511.6
2018-Jan-18 10:00N 36°42' W 123°22'611.5
2018-Jan-18 09:30N 36°47' W 123°23'611.0
2018-Jan-18 09:00N 36°53' W 123°25'511.2
2018-Jan-18 08:30N 36°58' W 123°26'611.2
2018-Jan-18 08:00N 37°04' W 123°28'611.3
2018-Jan-18 07:30N 37°09' W 123°30'510.7
2018-Jan-18 07:00N 37°14' W 123°26'611.1
2018-Jan-18 06:29N 37°18' W 123°21'711.3
2018-Jan-18 05:55N 37°23' W 123°16'511.5
2018-Jan-18 05:30N 37°27' W 123°12'611.1
2018-Jan-18 05:00N 37°31' W 123°08'510.6
2018-Jan-18 04:30N 37°34' W 123°03'5 9.9
2018-Jan-18 04:00N 37°37' W 122°58'510.1
2018-Jan-18 03:30N 37°40' W 122°53'510.0
2018-Jan-18 03:01N 37°43' W 122°47'510.2
2018-Jan-18 02:30N 37°46' W 122°42'510.2
2018-Jan-18 02:00N 37°47' W 122°36'713.1
2018-Jan-18 01:31N 37°50' W 122°28'4 8.7
2018-Jan-18 01:00N 37°54' W 122°26'1211.8
2018-Jan-18 00:00N 38°03' W 122°18'110.5
2018-Jan-17 23:57N 38°04' W 122°17'  
2018-Jan-12 14:58N 34°11' W 121°40'511.1
2018-Jan-12 14:28N 34°07' W 121°36'510.6
2018-Jan-12 14:00N 34°05' W 121°30'510.9
2018-Jan-12 13:31N 34°03' W 121°24'510.9
2018-Jan-12 13:00N 34°00' W 121°18'510.8
2018-Jan-12 12:30N 33°58' W 121°12'510.8
2018-Jan-12 12:00N 33°56' W 121°06'510.8
2018-Jan-12 11:30N 33°54' W 121°00'610.9
2018-Jan-12 10:59N 33°52' W 120°54'510.8
2018-Jan-12 10:31N 33°51' W 120°48'610.8
2018-Jan-12 10:00N 33°50' W 120°42'510.9
2018-Jan-12 09:30N 33°49' W 120°35'610.8
2018-Jan-12 08:59N 33°48' W 120°28'611.0
2018-Jan-12 08:27N 33°46' W 120°22'511.2
2018-Jan-12 08:00N 33°46' W 120°16'611.1
2018-Jan-12 07:29N 33°45' W 120°09'611.3
2018-Jan-12 06:59N 33°45' W 120°02'611.1
2018-Jan-12 06:26N 33°45' W 119°55'511.4
2018-Jan-12 05:59N 33°45' W 119°49'611.7
2018-Jan-12 05:28N 33°45' W 119°41'611.9
2018-Jan-12 05:00N 33°45' W 119°35'611.6
2018-Jan-12 04:28N 33°45' W 119°27'611.8
2018-Jan-12 03:59N 33°45' W 119°20'611.7
2018-Jan-12 03:28N 33°44' W 119°13'511.5
2018-Jan-12 02:59N 33°43' W 119°07'511.1
2018-Jan-12 02:30N 33°41' W 119°01'611.2
2018-Jan-12 02:00N 33°40' W 118°54'611.4
2018-Jan-12 01:29N 33°40' W 118°47'611.5
2018-Jan-12 00:56N 33°39' W 118°39'511.5
2018-Jan-12 00:30N 33°39' W 118°33'611.7
2018-Jan-11 23:59N 33°39' W 118°26'711.5
2018-Jan-11 23:24N 33°38' W 118°18'4 0.1
2018-Jan-10 07:34N 33°41' W 118°14'13 9.7
2018-Jan-10 06:13N 33°36' W 118°29'211.4
2018-Jan-10 06:01N 33°36' W 118°32'611.3
2018-Jan-10 05:30N 33°36' W 118°38'611.2
2018-Jan-10 05:00N 33°36' W 118°45'611.4
2018-Jan-10 04:30N 33°37' W 118°52'611.3
2018-Jan-10 04:00N 33°38' W 118°59'510.2
2018-Jan-10 03:30N 33°38' W 119°05'511.1
2018-Jan-10 03:00N 33°38' W 119°11'510.6
2018-Jan-10 02:30N 33°38' W 119°18'510.6
2018-Jan-10 02:00N 33°38' W 119°24'510.7
2018-Jan-10 01:30N 33°38' W 119°31'510.9
2018-Jan-10 01:00N 33°38' W 119°37'510.6
2018-Jan-10 00:30N 33°38' W 119°43'510.6
2018-Jan-10 00:00N 33°38' W 119°50'510.7
2018-Jan-09 23:30N 33°38' W 119°56'611.1
2018-Jan-09 22:59N 33°38' W 120°03'511.0
2018-Jan-09 22:30N 33°38' W 120°10'610.7
2018-Jan-09 21:57N 33°38' W 120°17'510.7
2018-Jan-09 21:30N 33°40' W 120°22'510.9
2018-Jan-09 21:01N 33°42' W 120°28'610.9
2018-Jan-09 20:30N 33°44' W 120°35'511.0
2018-Jan-09 20:00N 33°46' W 120°40'611.2
2018-Jan-09 19:31N 33°49' W 120°46'611.1
2018-Jan-09 19:00N 33°51' W 120°52'611.1
2018-Jan-09 18:30N 33°53' W 120°58'510.9
2018-Jan-09 18:00N 33°56' W 121°04'511.0
2018-Jan-09 17:30N 33°58' W 121°10'611.2
2018-Jan-09 17:00N 33°60' W 121°17'611.6
2018-Jan-09 16:31N 34°02' W 121°23'611.6
2018-Jan-09 16:00N 34°05' W 121°30'611.4
2018-Jan-09 15:30N 34°08' W 121°35'611.6
2018-Jan-09 14:58N 34°12' W 121°40'611.7
2018-Jan-09 14:29N 34°17' W 121°45'1511.3
2018-Jan-09 13:09N 34°28' W 121°57'211.0
2018-Jan-09 12:59N 34°29' W 121°58'1711.4
2018-Jan-09 11:31N 34°42' W 122°11'011.4
2018-Jan-09 11:29N 34°43' W 122°11'  
Track history (hours):
 
Tides and Currents Weather Stations Pressure Air Temp Water Temp Dewpoint Dewpoint Depression Visibility Wind Speed Wind Dir Waves Ship Positions

Gulf Reliance

Owner: Intrepid Ship Management, Jacksonville, FL. More information available from US FCC via Universal Licensing System and Coast Guard Vessel Documentation Center.

Last reported at 2018-Jan-19 01:00 UTC. Time now 2018-Jan-19 01:26 UTC.
Position N 34°17' W 121°45'.

Type: Towing. MMSI: 303668000.

Date/timePositionNaut miles runAvg speedWind from/ knotsBaromVisibWave heightAir tempDewpointWater temp
2018-Jan-19 01:00N 34°17' W 121°45'611.4
2018-Jan-19 00:31N 34°21' W 121°49'611.5
2018-Jan-19 00:00N 34°25' W 121°54'611.2
2018-Jan-18 23:30N 34°30' W 121°58'611.0
2018-Jan-18 23:00N 34°34' W 122°02'510.9
2018-Jan-18 22:30N 34°38' W 122°06'611.1
2018-Jan-18 22:00N 34°42' W 122°11'611.4
2018-Jan-18 21:28N 34°47' W 122°15'2611.2
2018-Jan-18 19:08N 35°07' W 122°36'511.2
2018-Jan-18 18:43N 35°10' W 122°40'411.1
2018-Jan-18 18:22N 35°13' W 122°43'1711.2
2018-Jan-18 16:50N 35°26' W 122°56'1911.3
2018-Jan-18 15:08N 35°45' W 123°04'311.6
2018-Jan-18 14:53N 35°47' W 123°05'611.6
2018-Jan-18 14:23N 35°53' W 123°07'411.6
2018-Jan-18 14:00N 35°57' W 123°09'611.8
2018-Jan-18 13:30N 36°03' W 123°11'3211.4
2018-Jan-18 10:41N 36°34' W 123°19'211.2
2018-Jan-18 10:29N 36°36' W 123°20'511.6
2018-Jan-18 10:00N 36°42' W 123°22'611.5
2018-Jan-18 09:30N 36°47' W 123°23'611.0
2018-Jan-18 09:00N 36°53' W 123°25'511.2
2018-Jan-18 08:30N 36°58' W 123°26'611.2
2018-Jan-18 08:00N 37°04' W 123°28'611.3
2018-Jan-18 07:30N 37°09' W 123°30'510.7
2018-Jan-18 07:00N 37°14' W 123°26'611.1
2018-Jan-18 06:29N 37°18' W 123°21'711.3
2018-Jan-18 05:55N 37°23' W 123°16'511.5
2018-Jan-18 05:30N 37°27' W 123°12'611.1
2018-Jan-18 05:00N 37°31' W 123°08'510.6
2018-Jan-18 04:30N 37°34' W 123°03'5 9.9
2018-Jan-18 04:00N 37°37' W 122°58'510.1
2018-Jan-18 03:30N 37°40' W 122°53'510.0
2018-Jan-18 03:01N 37°43' W 122°47'510.2
2018-Jan-18 02:30N 37°46' W 122°42'510.2
2018-Jan-18 02:00N 37°47' W 122°36'713.1
2018-Jan-18 01:31N 37°50' W 122°28'4 8.7
2018-Jan-18 01:00N 37°54' W 122°26'1211.8
2018-Jan-18 00:00N 38°03' W 122°18'110.5
2018-Jan-17 23:57N 38°04' W 122°17'  
2018-Jan-12 14:58N 34°11' W 121°40'511.1
2018-Jan-12 14:28N 34°07' W 121°36'510.6
2018-Jan-12 14:00N 34°05' W 121°30'510.9
2018-Jan-12 13:31N 34°03' W 121°24'510.9
2018-Jan-12 13:00N 34°00' W 121°18'510.8
2018-Jan-12 12:30N 33°58' W 121°12'510.8
2018-Jan-12 12:00N 33°56' W 121°06'510.8
2018-Jan-12 11:30N 33°54' W 121°00'610.9
2018-Jan-12 10:59N 33°52' W 120°54'510.8
2018-Jan-12 10:31N 33°51' W 120°48'610.8
2018-Jan-12 10:00N 33°50' W 120°42'510.9
2018-Jan-12 09:30N 33°49' W 120°35'610.8
2018-Jan-12 08:59N 33°48' W 120°28'611.0
2018-Jan-12 08:27N 33°46' W 120°22'511.2
2018-Jan-12 08:00N 33°46' W 120°16'611.1
2018-Jan-12 07:29N 33°45' W 120°09'611.3
2018-Jan-12 06:59N 33°45' W 120°02'611.1
2018-Jan-12 06:26N 33°45' W 119°55'511.4
2018-Jan-12 05:59N 33°45' W 119°49'611.7
2018-Jan-12 05:28N 33°45' W 119°41'611.9
2018-Jan-12 05:00N 33°45' W 119°35'611.6
2018-Jan-12 04:28N 33°45' W 119°27'611.8
2018-Jan-12 03:59N 33°45' W 119°20'611.7
2018-Jan-12 03:28N 33°44' W 119°13'511.5
2018-Jan-12 02:59N 33°43' W 119°07'511.1
2018-Jan-12 02:30N 33°41' W 119°01'611.2
2018-Jan-12 02:00N 33°40' W 118°54'611.4
2018-Jan-12 01:29N 33°40' W 118°47'611.5
2018-Jan-12 00:56N 33°39' W 118°39'511.5
2018-Jan-12 00:30N 33°39' W 118°33'611.7
2018-Jan-11 23:59N 33°39' W 118°26'711.5
2018-Jan-11 23:24N 33°38' W 118°18'4 0.1
2018-Jan-10 07:34N 33°41' W 118°14'13 9.7
2018-Jan-10 06:13N 33°36' W 118°29'211.4
2018-Jan-10 06:01N 33°36' W 118°32'611.3
2018-Jan-10 05:30N 33°36' W 118°38'611.2
2018-Jan-10 05:00N 33°36' W 118°45'611.4
2018-Jan-10 04:30N 33°37' W 118°52'611.3
2018-Jan-10 04:00N 33°38' W 118°59'510.2
2018-Jan-10 03:30N 33°38' W 119°05'511.1
2018-Jan-10 03:00N 33°38' W 119°11'510.6
2018-Jan-10 02:30N 33°38' W 119°18'510.6
2018-Jan-10 02:00N 33°38' W 119°24'510.7
2018-Jan-10 01:30N 33°38' W 119°31'510.9
2018-Jan-10 01:00N 33°38' W 119°37'510.6
2018-Jan-10 00:30N 33°38' W 119°43'510.6
2018-Jan-10 00:00N 33°38' W 119°50'510.7
2018-Jan-09 23:30N 33°38' W 119°56'611.1
2018-Jan-09 22:59N 33°38' W 120°03'511.0
2018-Jan-09 22:30N 33°38' W 120°10'610.7
2018-Jan-09 21:57N 33°38' W 120°17'510.7
2018-Jan-09 21:30N 33°40' W 120°22'510.9
2018-Jan-09 21:01N 33°42' W 120°28'610.9
2018-Jan-09 20:30N 33°44' W 120°35'511.0
2018-Jan-09 20:00N 33°46' W 120°40'611.2
2018-Jan-09 19:31N 33°49' W 120°46'611.1
2018-Jan-09 19:00N 33°51' W 120°52'611.1
2018-Jan-09 18:30N 33°53' W 120°58'510.9
2018-Jan-09 18:00N 33°56' W 121°04'511.0
2018-Jan-09 17:30N 33°58' W 121°10'611.2
2018-Jan-09 17:00N 33°60' W 121°17'611.6
2018-Jan-09 16:31N 34°02' W 121°23'611.6
2018-Jan-09 16:00N 34°05' W 121°30'611.4
2018-Jan-09 15:30N 34°08' W 121°35'611.6
2018-Jan-09 14:58N 34°12' W 121°40'611.7
2018-Jan-09 14:29N 34°17' W 121°45'1511.3
2018-Jan-09 13:09N 34°28' W 121°57'211.0
2018-Jan-09 12:59N 34°29' W 121°58'1711.4
2018-Jan-09 11:31N 34°42' W 122°11'011.4
2018-Jan-09 11:29N 34°43' W 122°11'  

Dump ship's entire track history